Champion, Canada
Current Conditions -  °F | °C
As of 3:00 AM on Friday 19 Dec 2014 (Local Time) from CYQL Reporting Station
Clear Clear  
Wind Chill: 17°   Ceiling: Unl
Heat Index: 28°   Visibility: 9mi
Dew Point: 23°   Wind: 14mph
Humidity: 80%   Direction: 220°SW
Pressure: 29.81"   Gusts: NA
Location:  50.22°N, 113.15°W
Report Text: CYQL 191000Z AUTO 22012KT 9SM CLR M02/M05 A2981 RMK SLP129
Loading
Personal Weather Stations






























Interactive Weather Map New forecast layout! Learn more

10-Day Weather Forecast

Advertisements
Track Severe Weather on mobile